Antelope, Texas
Current Conditions -  °F | °C
As of 8:10 PM on Saturday 20 Dec 2014 (Local Time) from KRPH Reporting Station
Overcast Overcast  
Wind Chill: 42°   Ceiling: 2000
Heat Index: 46°   Visibility: 10mi
Dew Point: 42°   Wind: 6mph
Humidity: 89%   Direction: 120°ESE
Pressure: 30.14"   Gusts: NA
Location:  33.4259°N, 98.383°W
Report Text: KRPH 210210Z AUTO 12005KT 10SM OVC020 08/06 A3014 RMK AO2 T00750058
Loading
Personal Weather Stations






























Interactive Weather Map New forecast layout! Learn more

10-Day Weather Forecast

Advertisements
Track Severe Weather on mobile